Mid Fortune — ZGCG8 — position and weather

sailwx.info

Track history (hours):
 
Tides and Currents Weather Stations Pressure Air Temp Water Temp Dewpoint Dewpoint Depression Visibility Wind Speed Wind Dir Waves Ship Positions

Mid Fortune

Last reported at 2016-Nov-29 07:08 UTC. Time now 2016-Dec-04 22:29 UTC.
Position N 36°13' E 014°51'.

Length 147 m; draft 9.8 m.

Type: Ship. MMSI: 319182000.

Date/timePositionNaut miles runAvg speedWind from/ knotsBaromVisibWave heightAir tempDewpointWater temp
2016-Nov-29 07:08N 36°13' E 014°51'711.6
2016-Nov-29 06:33N 36°15' E 014°43'1212.0
2016-Nov-29 05:33N 36°18' E 014°29'1212.0
2016-Nov-29 04:33N 36°22' E 014°15'1212.0
2016-Nov-29 03:32N 36°25' E 014°00'  
2016-Nov-25 18:03N 36°01' W 005°13'  
2016-Nov-23 06:26N 38°19' W 009°59'3311.4
2016-Nov-23 03:33N 38°52' W 010°06'1111.4
2016-Nov-23 02:33N 39°03' W 010°06'  
2016-Nov-19 19:11N 49°46' W 003°34'1810.9
2016-Nov-19 17:33N 49°55' W 003°10'1212.1
2016-Nov-19 16:33N 49°60' W 002°53'  
Track history (hours):
 
Tides and Currents Weather Stations Pressure Air Temp Water Temp Dewpoint Dewpoint Depression Visibility Wind Speed Wind Dir Waves Ship Positions

Mid Fortune

Last reported at 2016-Nov-29 07:08 UTC. Time now 2016-Dec-04 22:29 UTC.
Position N 36°13' E 014°51'.

Length 147 m; draft 9.8 m.

Type: Ship. MMSI: 319182000.

Date/timePositionNaut miles runAvg speedWind from/ knotsBaromVisibWave heightAir tempDewpointWater temp
2016-Nov-29 07:08N 36°13' E 014°51'711.6
2016-Nov-29 06:33N 36°15' E 014°43'1212.0
2016-Nov-29 05:33N 36°18' E 014°29'1212.0
2016-Nov-29 04:33N 36°22' E 014°15'1212.0
2016-Nov-29 03:32N 36°25' E 014°00'  
2016-Nov-25 18:03N 36°01' W 005°13'  
2016-Nov-23 06:26N 38°19' W 009°59'3311.4
2016-Nov-23 03:33N 38°52' W 010°06'1111.4
2016-Nov-23 02:33N 39°03' W 010°06'  
2016-Nov-19 19:11N 49°46' W 003°34'1810.9
2016-Nov-19 17:33N 49°55' W 003°10'1212.1
2016-Nov-19 16:33N 49°60' W 002°53'  

Dump ship's entire track history